sensor_id;sensor_type;location;lat;lon;timestamp;pressure;altitude;pressure_sealevel;temperature;humidity
67931;BME280;54726;52.000;5.954;2022-08-04T00:00:11;100926.63;;;21.81;67.53
67931;BME280;54726;52.000;5.954;2022-08-04T00:01:20;100922.22;;;21.80;67.09
67931;BME280;54726;52.000;5.954;2022-08-04T00:02:24;100922.22;;;21.80;67.39
67931;BME280;54726;52.000;5.954;2022-08-04T00:03:28;100916.09;;;21.78;67.15
67931;BME280;54726;52.000;5.954;2022-08-04T00:04:39;100916.94;;;21.78;67.16
67931;BME280;54726;52.000;5.954;2022-08-04T00:05:53;100917.34;;;21.74;67.20
67931;BME280;54726;52.000;5.954;2022-08-04T00:07:03;100915.34;;;21.76;67.08
67931;BME280;54726;52.000;5.954;2022-08-04T00:08:17;100906.94;;;21.69;67.48
67931;BME280;54726;52.000;5.954;2022-08-04T00:09:26;100921.03;;;21.73;67.26
67931;BME280;54726;52.000;5.954;2022-08-04T00:10:31;100918.47;;;21.71;67.28
67931;BME280;54726;52.000;5.954;2022-08-04T00:11:32;100914.19;;;21.68;67.76
67931;BME280;54726;52.000;5.954;2022-08-04T00:12:36;100919.59;;;21.68;67.84
67931;BME280;54726;52.000;5.954;2022-08-04T00:13:38;100869.56;;;21.43;67.81
67931;BME280;54726;52.000;5.954;2022-08-04T00:14:47;100901.22;;;21.62;67.62
67931;BME280;54726;52.000;5.954;2022-08-04T00:15:50;100904.91;;;21.61;67.83
67931;BME280;54726;52.000;5.954;2022-08-04T00:16:52;100904.91;;;21.61;67.93
67931;BME280;54726;52.000;5.954;2022-08-04T00:17:56;100906.91;;;21.59;67.91
67931;BME280;54726;52.000;5.954;2022-08-04T00:19:00;100907.88;;;21.58;68.68
67931;BME280;54726;52.000;5.954;2022-08-04T00:20:03;100910.56;;;21.58;68.14
67931;BME280;54726;52.000;5.954;2022-08-04T00:21:06;100910.44;;;21.60;67.95
67931;BME280;54726;52.000;5.954;2022-08-04T00:22:10;100908.59;;;21.60;68.26
67931;BME280;54726;52.000;5.954;2022-08-04T00:23:12;100902.34;;;21.60;68.03
67931;BME280;54726;52.000;5.954;2022-08-04T00:24:15;100905.16;;;21.58;68.18
67931;BME280;54726;52.000;5.954;2022-08-04T00:25:15;100903.59;;;21.56;68.18
67931;BME280;54726;52.000;5.954;2022-08-04T00:26:16;100899.28;;;21.53;68.57
67931;BME280;54726;52.000;5.954;2022-08-04T00:27:17;100903.84;;;21.53;68.88
67931;BME280;54726;52.000;5.954;2022-08-04T00:28:18;100907.66;;;21.50;68.53
67931;BME280;54726;52.000;5.954;2022-08-04T00:29:19;100902.69;;;21.45;68.45
67931;BME280;54726;52.000;5.954;2022-08-04T00:30:20;100875.38;;;21.28;68.53
67931;BME280;54726;52.000;5.954;2022-08-04T00:31:21;100903.66;;;21.44;69.03
67931;BME280;54726;52.000;5.954;2022-08-04T00:32:22;100906.34;;;21.44;68.90
67931;BME280;54726;52.000;5.954;2022-08-04T00:33:23;100910.03;;;21.43;68.86
67931;BME280;54726;52.000;5.954;2022-08-04T00:34:26;100903.06;;;21.41;69.04
67931;BME280;54726;52.000;5.954;2022-08-04T00:35:28;100896.44;;;21.34;69.32
67931;BME280;54726;52.000;5.954;2022-08-04T00:36:30;100890.06;;;21.35;69.39
67931;BME280;54726;52.000;5.954;2022-08-04T00:37:31;100900.00;;;21.34;69.47
67931;BME280;54726;52.000;5.954;2022-08-04T00:38:33;100894.72;;;21.33;69.12
67931;BME280;54726;52.000;5.954;2022-08-04T00:39:34;100896.97;;;21.28;69.59
67931;BME280;54726;52.000;5.954;2022-08-04T00:40:42;100894.41;;;21.26;69.89
67931;BME280;54726;52.000;5.954;2022-08-04T00:41:55;100890.38;;;21.20;69.54
67931;BME280;54726;52.000;5.954;2022-08-04T00:43:07;100892.09;;;21.21;69.84
67931;BME280;54726;52.000;5.954;2022-08-04T00:44:18;100884.53;;;21.15;69.99
67931;BME280;54726;52.000;5.954;2022-08-04T00:45:40;100892.19;;;21.20;69.84
67931;BME280;54726;52.000;5.954;2022-08-04T00:46:53;100891.50;;;21.18;69.77
67931;BME280;54726;52.000;5.954;2022-08-04T00:48:06;100888.19;;;21.14;69.90
67931;BME280;54726;52.000;5.954;2022-08-04T00:49:27;100882.34;;;21.09;69.66
67931;BME280;54726;52.000;5.954;2022-08-04T00:50:39;100884.91;;;21.11;69.54
67931;BME280;54726;52.000;5.954;2022-08-04T00:51:51;100891.16;;;21.11;69.47
67931;BME280;54726;52.000;5.954;2022-08-04T00:53:03;100879.78;;;21.08;69.57
67931;BME280;54726;52.000;5.954;2022-08-04T00:54:10;100881.47;;;21.09;69.88
67931;BME280;54726;52.000;5.954;2022-08-04T00:55:22;100880.63;;;21.08;69.53
67931;BME280;54726;52.000;5.954;2022-08-04T00:56:56;100883.56;;;21.05;69.84
67931;BME280;54726;52.000;5.954;2022-08-04T00:58:26;100891.94;;;21.02;69.60
67931;BME280;54726;52.000;5.954;2022-08-04T00:59:38;100881.50;;;20.97;69.59
67931;BME280;54726;52.000;5.954;2022-08-04T01:00:46;100873.84;;;20.93;69.75
67931;BME280;54726;52.000;5.954;2022-08-04T01:01:54;100873.94;;;20.91;70.24
67931;BME280;54726;52.000;5.954;2022-08-04T01:03:08;100869.66;;;20.89;70.21
67931;BME280;54726;52.000;5.954;2022-08-04T01:04:15;100864.94;;;20.81;70.15
67931;BME280;54726;52.000;5.954;2022-08-04T01:05:21;100879.00;;;20.85;70.21
67931;BME280;54726;52.000;5.954;2022-08-04T01:06:34;100879.84;;;20.85;70.72
67931;BME280;54726;52.000;5.954;2022-08-04T01:07:51;100880.97;;;20.83;70.48
67931;BME280;54726;52.000;5.954;2022-08-04T01:09:05;100869.84;;;20.76;70.74
67931;BME280;54726;52.000;5.954;2022-08-04T01:10:14;100877.09;;;20.75;70.67
67931;BME280;54726;52.000;5.954;2022-08-04T01:11:25;100873.50;;;20.75;70.61
67931;BME280;54726;52.000;5.954;2022-08-04T01:12:40;100873.50;;;20.75;70.73
67931;BME280;54726;52.000;5.954;2022-08-04T01:14:07;100872.19;;;20.69;71.10
67931;BME280;54726;52.000;5.954;2022-08-04T01:15:17;100868.63;;;20.69;70.87
67931;BME280;54726;52.000;5.954;2022-08-04T01:16:24;100875.75;;;20.70;71.09
67931;BME280;54726;52.000;5.954;2022-08-04T01:17:31;100870.59;;;20.67;70.71
67931;BME280;54726;52.000;5.954;2022-08-04T01:18:35;100868.78;;;20.67;70.74
67931;BME280;54726;52.000;5.954;2022-08-04T01:20:09;100864.88;;;20.60;71.04
67931;BME280;54726;52.000;5.954;2022-08-04T01:24:43;100862.91;;;20.51;71.26
67931;BME280;54726;52.000;5.954;2022-08-04T01:26:09;100857.28;;;20.54;70.80
67931;BME280;54726;52.000;5.954;2022-08-04T01:27:17;100860.84;;;20.54;70.85
67931;BME280;54726;52.000;5.954;2022-08-04T01:28:29;100863.69;;;20.53;70.92
67931;BME280;54726;52.000;5.954;2022-08-04T01:29:42;100865.59;;;20.51;71.18
67931;BME280;54726;52.000;5.954;2022-08-04T01:30:48;100852.25;;;20.49;71.12
67931;BME280;54726;52.000;5.954;2022-08-04T01:32:03;100859.47;;;20.49;71.31
67931;BME280;54726;52.000;5.954;2022-08-04T01:33:08;100854.22;;;20.47;71.37
67931;BME280;54726;52.000;5.954;2022-08-04T01:34:12;100845.78;;;20.41;71.39
67931;BME280;54726;52.000;5.954;2022-08-04T01:35:20;100846.78;;;20.40;71.62
67931;BME280;54726;52.000;5.954;2022-08-04T01:36:23;100852.16;;;20.40;71.86
67931;BME280;54726;52.000;5.954;2022-08-04T01:37:33;100852.53;;;20.35;72.27
67931;BME280;54726;52.000;5.954;2022-08-04T01:38:38;100846.53;;;20.31;72.23
67931;BME280;54726;52.000;5.954;2022-08-04T01:41:03;100853.63;;;20.32;72.19
67931;BME280;54726;52.000;5.954;2022-08-04T01:42:05;100854.38;;;20.34;72.09
67931;BME280;54726;52.000;5.954;2022-08-04T01:43:07;100845.53;;;20.32;72.03
67931;BME280;54726;52.000;5.954;2022-08-04T01:44:09;100845.78;;;20.29;72.51
67931;BME280;54726;52.000;5.954;2022-08-04T01:45:12;100853.13;;;20.27;72.68
67931;BME280;54726;52.000;5.954;2022-08-04T01:46:15;100844.09;;;20.28;72.46
67931;BME280;54726;52.000;5.954;2022-08-04T01:47:16;100819.63;;;20.09;72.25
67931;BME280;54726;52.000;5.954;2022-08-04T01:48:24;100844.09;;;20.28;72.61
67931;BME280;54726;52.000;5.954;2022-08-04T01:49:28;100852.28;;;20.27;72.68
67931;BME280;54726;52.000;5.954;2022-08-04T01:50:32;100843.59;;;20.23;72.69
67931;BME280;54726;52.000;5.954;2022-08-04T01:51:38;100847.91;;;20.26;72.55
67931;BME280;54726;52.000;5.954;2022-08-04T01:52:40;100846.06;;;20.26;72.54
67931;BME280;54726;52.000;5.954;2022-08-04T01:53:42;100846.53;;;20.31;72.33
67931;BME280;54726;52.000;5.954;2022-08-04T01:54:45;100846.13;;;20.36;72.45
67931;BME280;54726;52.000;5.954;2022-08-04T01:55:47;100843.59;;;20.34;72.38
67931;BME280;54726;52.000;5.954;2022-08-04T01:56:48;100846.13;;;20.36;72.36
67931;BME280;54726;52.000;5.954;2022-08-04T01:57:50;100847.13;;;20.35;72.26
67931;BME280;54726;52.000;5.954;2022-08-04T01:58:56;100843.84;;;20.31;72.48
67931;BME280;54726;52.000;5.954;2022-08-04T01:59:58;100849.47;;;20.28;72.36
67931;BME280;54726;52.000;5.954;2022-08-04T02:01:02;100838.81;;;20.27;72.65
67931;BME280;54726;52.000;5.954;2022-08-04T02:02:04;100842.38;;;20.27;72.40
67931;BME280;54726;52.000;5.954;2022-08-04T02:03:04;100848.38;;;20.31;72.40
67931;BME280;54726;52.000;5.954;2022-08-04T02:04:05;100843.09;;;20.29;72.24
67931;BME280;54726;52.000;5.954;2022-08-04T02:05:08;100840.56;;;20.28;72.58
67931;BME280;54726;52.000;5.954;2022-08-04T02:06:17;100836.38;;;20.24;72.53
67931;BME280;54726;52.000;5.954;2022-08-04T02:07:38;100843.38;;;20.15;72.59
67931;BME280;54726;52.000;5.954;2022-08-04T02:08:45;100837.38;;;20.11;72.71
67931;BME280;54726;52.000;5.954;2022-08-04T02:09:56;100842.13;;;20.08;73.20
67931;BME280;54726;52.000;5.954;2022-08-04T02:11:03;100831.03;;;20.01;73.31
67931;BME280;54726;52.000;5.954;2022-08-04T02:12:06;100793.00;;;19.72;72.90
67931;BME280;54726;52.000;5.954;2022-08-04T02:13:14;100833.13;;;19.98;73.25
67931;BME280;54726;52.000;5.954;2022-08-04T02:14:24;100835.06;;;19.96;73.32
67931;BME280;54726;52.000;5.954;2022-08-04T02:15:30;100832.63;;;19.93;73.53
67931;BME280;54726;52.000;5.954;2022-08-04T02:16:43;100832.88;;;19.89;73.62
67931;BME280;54726;52.000;5.954;2022-08-04T02:17:48;100832.88;;;19.89;73.69
67931;BME280;54726;52.000;5.954;2022-08-04T02:19:00;100831.16;;;19.88;73.88
67931;BME280;54726;52.000;5.954;2022-08-04T02:20:07;100831.16;;;19.88;73.82
67931;BME280;54726;52.000;5.954;2022-08-04T02:21:08;100830.28;;;19.88;73.92
67931;BME280;54726;52.000;5.954;2022-08-04T02:22:15;100825.03;;;19.86;73.77
67931;BME280;54726;52.000;5.954;2022-08-04T02:23:27;100818.91;;;19.84;74.24
67931;BME280;54726;52.000;5.954;2022-08-04T02:24:30;100818.91;;;19.84;73.78
67931;BME280;54726;52.000;5.954;2022-08-04T02:25:33;100820.88;;;19.82;73.81
67931;BME280;54726;52.000;5.954;2022-08-04T02:26:37;100817.22;;;19.83;74.08
67931;BME280;54726;52.000;5.954;2022-08-04T02:27:55;100827.25;;;19.81;74.17
67931;BME280;54726;52.000;5.954;2022-08-04T02:29:02;100821.84;;;19.81;73.91
67931;BME280;54726;52.000;5.954;2022-08-04T02:30:04;100817.22;;;19.83;73.86
67931;BME280;54726;52.000;5.954;2022-08-04T02:31:13;100822.59;;;19.83;73.91
67931;BME280;54726;52.000;5.954;2022-08-04T02:32:20;100814.38;;;19.85;73.97
67931;BME280;54726;52.000;5.954;2022-08-04T02:33:26;100815.47;;;19.82;74.03
67931;BME280;54726;52.000;5.954;2022-08-04T02:34:37;100812.94;;;19.81;73.88
67931;BME280;54726;52.000;5.954;2022-08-04T02:35:40;100814.78;;;19.80;73.39
67931;BME280;54726;52.000;5.954;2022-08-04T02:36:43;100813.66;;;19.83;73.50
67931;BME280;54726;52.000;5.954;2022-08-04T02:37:47;100813.53;;;19.84;73.13
67931;BME280;54726;52.000;5.954;2022-08-04T02:38:54;100816.97;;;19.86;73.73
67931;BME280;54726;52.000;5.954;2022-08-04T02:39:58;100809.75;;;19.87;73.49
67931;BME280;54726;52.000;5.954;2022-08-04T02:41:00;100806.56;;;19.82;73.71
67931;BME280;54726;52.000;5.954;2022-08-04T02:42:03;100809.00;;;19.85;73.70
67931;BME280;54726;52.000;5.954;2022-08-04T02:43:05;100813.53;;;19.84;73.55
67931;BME280;54726;52.000;5.954;2022-08-04T02:44:08;100808.28;;;19.83;73.61
67931;BME280;54726;52.000;5.954;2022-08-04T02:45:11;100754.91;;;19.54;73.41
67931;BME280;54726;52.000;5.954;2022-08-04T02:46:12;100802.03;;;19.82;73.31
67931;BME280;54726;52.000;5.954;2022-08-04T02:47:12;100772.41;;;19.60;73.68
67931;BME280;54726;52.000;5.954;2022-08-04T02:48:16;100804.72;;;19.82;73.49
67931;BME280;54726;52.000;5.954;2022-08-04T02:49:18;100810.09;;;19.82;73.76
67931;BME280;54726;52.000;5.954;2022-08-04T02:50:20;100809.38;;;19.80;73.29
67931;BME280;54726;52.000;5.954;2022-08-04T02:51:23;100811.19;;;19.80;73.49
67931;BME280;54726;52.000;5.954;2022-08-04T02:52:25;100812.94;;;19.81;73.71
67931;BME280;54726;52.000;5.954;2022-08-04T02:53:27;100802.41;;;19.78;73.77
67931;BME280;54726;52.000;5.954;2022-08-04T02:54:33;100804.97;;;19.79;73.66
67931;BME280;54726;52.000;5.954;2022-08-04T02:55:34;100805.22;;;19.76;73.85
67931;BME280;54726;52.000;5.954;2022-08-04T02:56:36;100799.72;;;19.78;73.66
67931;BME280;54726;52.000;5.954;2022-08-04T02:57:38;100800.56;;;19.78;73.64
67931;BME280;54726;52.000;5.954;2022-08-04T02:58:41;100802.41;;;19.78;73.60
67931;BME280;54726;52.000;5.954;2022-08-04T03:00:03;100798.84;;;19.77;73.68
67931;BME280;54726;52.000;5.954;2022-08-04T03:01:04;100799.22;;;19.73;74.04
67931;BME280;54726;52.000;5.954;2022-08-04T03:02:05;100796.03;;;19.67;73.90
67931;BME280;54726;52.000;5.954;2022-08-04T03:03:18;100793.47;;;19.66;74.08
67931;BME280;54726;52.000;5.954;2022-08-04T03:04:38;100790.03;;;19.64;73.98
67931;BME280;54726;52.000;5.954;2022-08-04T03:05:57;100789.03;;;19.65;73.96
67931;BME280;54726;52.000;5.954;2022-08-04T03:07:19;100788.06;;;19.66;73.76
67931;BME280;54726;52.000;5.954;2022-08-04T03:10:20;100787.69;;;19.59;73.70
67931;BME280;54726;52.000;5.954;2022-08-04T03:11:36;100801.03;;;19.61;74.11
67931;BME280;54726;52.000;5.954;2022-08-04T03:13:14;100799.56;;;19.57;73.65
67931;BME280;54726;52.000;5.954;2022-08-04T03:14:28;100795.16;;;19.56;73.72
67931;BME280;54726;52.000;5.954;2022-08-04T03:15:57;100792.56;;;19.54;73.68
67931;BME280;54726;52.000;5.954;2022-08-04T03:19:12;100787.81;;;19.47;74.19
67931;BME280;54726;52.000;5.954;2022-08-04T03:22:05;100783.78;;;19.41;73.87
67931;BME280;54726;52.000;5.954;2022-08-04T03:23:28;100787.56;;;19.38;73.91
67931;BME280;54726;52.000;5.954;2022-08-04T03:25:03;100786.81;;;19.36;74.03
67931;BME280;54726;52.000;5.954;2022-08-04T03:26:30;100776.81;;;19.27;74.04
67931;BME280;54726;52.000;5.954;2022-08-04T03:28:17;100783.78;;;19.30;73.97
67931;BME280;54726;52.000;5.954;2022-08-04T03:29:51;100787.91;;;19.34;74.03
67931;BME280;54726;52.000;5.954;2022-08-04T03:31:16;100782.19;;;19.27;73.95
67931;BME280;54726;52.000;5.954;2022-08-04T03:32:47;100785.72;;;19.28;73.93
67931;BME280;54726;52.000;5.954;2022-08-04T03:34:02;100789.38;;;19.27;74.38
67931;BME280;54726;52.000;5.954;2022-08-04T03:35:35;100784.38;;;19.22;74.38
67931;BME280;54726;52.000;5.954;2022-08-04T03:36:59;100787.16;;;19.20;74.67
67931;BME280;54726;52.000;5.954;2022-08-04T03:38:13;100786.56;;;19.17;74.36
67931;BME280;54726;52.000;5.954;2022-08-04T03:41:26;100791.06;;;19.16;74.53
67931;BME280;54726;52.000;5.954;2022-08-04T03:44:39;100777.38;;;19.08;74.37
67931;BME280;54726;52.000;5.954;2022-08-04T03:46:15;100780.16;;;19.07;74.62
67931;BME280;54726;52.000;5.954;2022-08-04T03:47:35;100772.47;;;19.02;74.80
67931;BME280;54726;52.000;5.954;2022-08-04T03:49:11;100778.94;;;18.99;74.92
67931;BME280;54726;52.000;5.954;2022-08-04T03:50:39;100772.72;;;18.99;75.09
67931;BME280;54726;52.000;5.954;2022-08-04T03:51:42;100781.38;;;19.03;75.00
67931;BME280;54726;52.000;5.954;2022-08-04T03:53:08;100783.22;;;19.02;74.93
67931;BME280;54726;52.000;5.954;2022-08-04T03:54:38;100783.31;;;19.00;75.17
67931;BME280;54726;52.000;5.954;2022-08-04T03:56:18;100774.28;;;19.01;74.92
67931;BME280;54726;52.000;5.954;2022-08-04T03:57:41;100771.72;;;19.00;74.87
67931;BME280;54726;52.000;5.954;2022-08-04T03:59:08;100766.69;;;18.95;75.33
67931;BME280;54726;52.000;5.954;2022-08-04T04:00:17;100767.53;;;18.96;75.31
67931;BME280;54726;52.000;5.954;2022-08-04T04:01:42;100773.16;;;18.93;75.33
67931;BME280;54726;52.000;5.954;2022-08-04T04:03:10;100760.09;;;18.88;75.47
67931;BME280;54726;52.000;5.954;2022-08-04T04:04:36;100758.59;;;18.84;75.32
67931;BME280;54726;52.000;5.954;2022-08-04T04:05:58;100762.88;;;18.87;75.53
67931;BME280;54726;52.000;5.954;2022-08-04T04:10:19;100767.88;;;18.80;75.83
67931;BME280;54726;52.000;5.954;2022-08-04T04:11:42;100766.91;;;18.81;75.81
67931;BME280;54726;52.000;5.954;2022-08-04T04:13:01;100763.38;;;18.81;75.95
67931;BME280;54726;52.000;5.954;2022-08-04T04:14:37;100766.16;;;18.79;75.82
67931;BME280;54726;52.000;5.954;2022-08-04T04:15:50;100758.22;;;18.77;75.69
67931;BME280;54726;52.000;5.954;2022-08-04T04:17:08;100752.84;;;18.77;75.82
67931;BME280;54726;52.000;5.954;2022-08-04T04:18:34;100760.78;;;18.79;75.74
67931;BME280;54726;52.000;5.954;2022-08-04T04:20:08;100759.06;;;18.78;75.89
67931;BME280;54726;52.000;5.954;2022-08-04T04:23:06;100756.16;;;18.81;75.69
67931;BME280;54726;52.000;5.954;2022-08-04T04:24:30;100762.28;;;18.83;76.16
67931;BME280;54726;52.000;5.954;2022-08-04T04:25:41;100763.97;;;18.84;75.20
67931;BME280;54726;52.000;5.954;2022-08-04T04:26:56;100762.13;;;18.85;75.39
67931;BME280;54726;52.000;5.954;2022-08-04T04:28:26;100765.72;;;18.85;75.56
67931;BME280;54726;52.000;5.954;2022-08-04T04:29:34;100764.97;;;18.83;75.95
67931;BME280;54726;52.000;5.954;2022-08-04T04:30:48;100756.06;;;18.83;75.09
67931;BME280;54726;52.000;5.954;2022-08-04T04:32:02;100756.91;;;18.83;75.34
67931;BME280;54726;52.000;5.954;2022-08-04T04:33:19;100759.44;;;18.85;75.26
67931;BME280;54726;52.000;5.954;2022-08-04T04:34:34;100750.78;;;18.81;75.47
67931;BME280;54726;52.000;5.954;2022-08-04T04:35:45;100755.69;;;18.87;75.57
67931;BME280;54726;52.000;5.954;2022-08-04T04:36:52;100762.13;;;18.85;75.79
67931;BME280;54726;52.000;5.954;2022-08-04T04:38:37;100752.13;;;18.87;75.39
67931;BME280;54726;52.000;5.954;2022-08-04T04:39:51;100754.72;;;18.88;74.86
67931;BME280;54726;52.000;5.954;2022-08-04T04:41:03;100753.72;;;18.89;75.16
67931;BME280;54726;52.000;5.954;2022-08-04T04:42:23;100760.94;;;18.89;75.22
67931;BME280;54726;52.000;5.954;2022-08-04T04:43:38;100763.41;;;18.92;75.22
67931;BME280;54726;52.000;5.954;2022-08-04T04:45:05;100764.00;;;18.95;75.53
67931;BME280;54726;52.000;5.954;2022-08-04T04:46:15;100775.16;;;19.02;75.36
67931;BME280;54726;52.000;5.954;2022-08-04T04:47:28;100777.22;;;19.10;74.82
67931;BME280;54726;52.000;5.954;2022-08-04T04:48:35;100779.47;;;19.16;74.89
67931;BME280;54726;52.000;5.954;2022-08-04T04:49:44;100782.88;;;19.29;74.77
67931;BME280;54726;52.000;5.954;2022-08-04T04:50:57;100779.00;;;19.33;74.33
67931;BME280;54726;52.000;5.954;2022-08-04T04:52:08;100791.09;;;19.39;74.35
67931;BME280;54726;52.000;5.954;2022-08-04T04:53:19;100782.19;;;19.38;74.37
67931;BME280;54726;52.000;5.954;2022-08-04T04:54:29;100779.97;;;19.43;74.08
67931;BME280;54726;52.000;5.954;2022-08-04T04:55:35;100779.13;;;19.43;74.20
67931;BME280;54726;52.000;5.954;2022-08-04T04:56:42;100790.97;;;19.40;74.29
67931;BME280;54726;52.000;5.954;2022-08-04T04:57:45;100796.50;;;19.39;74.57
67931;BME280;54726;52.000;5.954;2022-08-04T04:58:49;100804.56;;;19.39;74.94
67931;BME280;54726;52.000;5.954;2022-08-04T04:59:55;100794.53;;;19.41;74.80
67931;BME280;54726;52.000;5.954;2022-08-04T05:01:21;100797.84;;;19.44;74.77
67931;BME280;54726;52.000;5.954;2022-08-04T05:03:04;100788.19;;;19.42;74.78
67931;BME280;54726;52.000;5.954;2022-08-04T05:04:24;100802.38;;;19.44;74.69
67931;BME280;54726;52.000;5.954;2022-08-04T05:06:06;100805.78;;;19.46;74.88
67931;BME280;54726;52.000;5.954;2022-08-04T05:08:02;100809.94;;;19.50;75.25
67931;BME280;54726;52.000;5.954;2022-08-04T05:09:19;100801.50;;;19.55;74.41
67931;BME280;54726;52.000;5.954;2022-08-04T05:10:37;100805.09;;;19.66;74.22
67931;BME280;54726;52.000;5.954;2022-08-04T05:12:13;100810.75;;;19.75;74.09
67931;BME280;54726;52.000;5.954;2022-08-04T05:13:33;100816.72;;;19.78;74.03
67931;BME280;54726;52.000;5.954;2022-08-04T05:14:36;100823.44;;;19.84;73.78
67931;BME280;54726;52.000;5.954;2022-08-04T05:15:45;100818.66;;;19.87;73.74
67931;BME280;54726;52.000;5.954;2022-08-04T05:17:02;100826.63;;;19.89;74.04
67931;BME280;54726;52.000;5.954;2022-08-04T05:18:05;100824.44;;;19.94;73.56
67931;BME280;54726;52.000;5.954;2022-08-04T05:19:16;100819.66;;;19.98;73.53
67931;BME280;54726;52.000;5.954;2022-08-04T05:20:22;100820.41;;;20.00;73.63
67931;BME280;54726;52.000;5.954;2022-08-04T05:21:35;100824.03;;;19.99;73.67
67931;BME280;54726;52.000;5.954;2022-08-04T05:22:39;100818.66;;;19.99;73.63
67931;BME280;54726;52.000;5.954;2022-08-04T05:23:43;100796.53;;;19.84;73.82
67931;BME280;54726;52.000;5.954;2022-08-04T05:24:53;100820.16;;;20.03;73.87
67931;BME280;54726;52.000;5.954;2022-08-04T05:26:01;100822.34;;;20.09;73.99
67931;BME280;54726;52.000;5.954;2022-08-04T05:27:11;100818.13;;;20.16;73.58
67931;BME280;54726;52.000;5.954;2022-08-04T05:28:15;100816.19;;;20.18;73.35
67931;BME280;54726;52.000;5.954;2022-08-04T05:29:25;100830.88;;;20.25;73.76
67931;BME280;54726;52.000;5.954;2022-08-04T05:30:27;100821.56;;;20.29;73.71
67931;BME280;54726;52.000;5.954;2022-08-04T05:31:33;100825.72;;;20.33;73.48
67931;BME280;54726;52.000;5.954;2022-08-04T05:32:42;100818.34;;;20.35;73.21
67931;BME280;54726;52.000;5.954;2022-08-04T05:33:48;100819.09;;;20.38;73.37
67931;BME280;54726;52.000;5.954;2022-08-04T05:34:54;100830.94;;;20.46;73.28
67931;BME280;54726;52.000;5.954;2022-08-04T05:35:58;100817.34;;;20.48;73.19
67931;BME280;54726;52.000;5.954;2022-08-04T05:37:02;100828.50;;;20.54;72.93
67931;BME280;54726;52.000;5.954;2022-08-04T05:38:09;100826.03;;;20.63;72.87
67931;BME280;54726;52.000;5.954;2022-08-04T05:39:15;100824.19;;;20.63;72.75
67931;BME280;54726;52.000;5.954;2022-08-04T05:40:18;100826.34;;;20.69;72.84
67931;BME280;54726;52.000;5.954;2022-08-04T05:41:20;100820.00;;;20.70;72.25
67931;BME280;54726;52.000;5.954;2022-08-04T05:42:21;100827.19;;;20.81;72.64
67931;BME280;54726;52.000;5.954;2022-08-04T05:43:23;100833.91;;;20.87;72.85
67931;BME280;54726;52.000;5.954;2022-08-04T05:44:26;100837.78;;;20.94;72.45
67931;BME280;54726;52.000;5.954;2022-08-04T05:45:28;100833.88;;;20.98;72.61
67931;BME280;54726;52.000;5.954;2022-08-04T05:46:29;100825.34;;;21.02;71.89
67931;BME280;54726;52.000;5.954;2022-08-04T05:47:31;100830.63;;;21.04;72.03
67931;BME280;54726;52.000;5.954;2022-08-04T05:48:33;100827.78;;;21.06;72.11
67931;BME280;54726;52.000;5.954;2022-08-04T05:49:36;100817.69;;;20.98;72.43
67931;BME280;54726;52.000;5.954;2022-08-04T05:50:38;100823.00;;;21.09;72.34
67931;BME280;54726;52.000;5.954;2022-08-04T05:51:38;100820.31;;;21.09;72.36
67931;BME280;54726;52.000;5.954;2022-08-04T05:52:40;100816.50;;;21.12;72.53
67931;BME280;54726;52.000;5.954;2022-08-04T05:53:43;100813.66;;;21.13;72.32
67931;BME280;54726;52.000;5.954;2022-08-04T05:54:44;100816.25;;;21.15;72.59
67931;BME280;54726;52.000;5.954;2022-08-04T05:55:45;100809.84;;;21.16;72.26
67931;BME280;54726;52.000;5.954;2022-08-04T05:56:48;100810.69;;;21.16;72.41
67931;BME280;54726;52.000;5.954;2022-08-04T05:57:49;100816.81;;;21.18;72.84
67931;BME280;54726;52.000;5.954;2022-08-04T05:58:51;100806.03;;;21.18;72.58
67931;BME280;54726;52.000;5.954;2022-08-04T05:59:54;100814.59;;;21.23;72.38
67931;BME280;54726;52.000;5.954;2022-08-04T06:00:56;100813.59;;;21.24;72.61
67931;BME280;54726;52.000;5.954;2022-08-04T06:01:59;100814.16;;;21.28;72.68
67931;BME280;54726;52.000;5.954;2022-08-04T06:03:00;100822.00;;;21.31;72.53
67931;BME280;54726;52.000;5.954;2022-08-04T06:04:02;100817.22;;;21.35;72.48
67931;BME280;54726;52.000;5.954;2022-08-04T06:05:04;100815.00;;;21.40;72.29
67931;BME280;54726;52.000;5.954;2022-08-04T06:06:06;100812.91;;;21.43;72.22
67931;BME280;54726;52.000;5.954;2022-08-04T06:07:08;100811.91;;;21.44;72.22
67931;BME280;54726;52.000;5.954;2022-08-04T06:08:09;100816.44;;;21.44;72.18
67931;BME280;54726;52.000;5.954;2022-08-04T06:09:09;100822.69;;;21.44;72.71
67931;BME280;54726;52.000;5.954;2022-08-04T06:10:10;100797.31;;;21.36;72.66
67931;BME280;54726;52.000;5.954;2022-08-04T06:11:11;100800.97;;;21.46;72.62
67931;BME280;54726;52.000;5.954;2022-08-04T06:12:19;100812.66;;;21.56;72.54
67931;BME280;54726;52.000;5.954;2022-08-04T06:13:28;100809.44;;;21.62;71.88
67931;BME280;54726;52.000;5.954;2022-08-04T06:14:31;100815.44;;;21.66;71.76
67931;BME280;54726;52.000;5.954;2022-08-04T06:15:36;100809.63;;;21.71;71.83
67931;BME280;54726;52.000;5.954;2022-08-04T06:16:39;100813.63;;;21.76;71.76
67931;BME280;54726;52.000;5.954;2022-08-04T06:17:45;100804.66;;;21.76;71.61
67931;BME280;54726;52.000;5.954;2022-08-04T06:18:48;100806.69;;;21.83;71.53
67931;BME280;54726;52.000;5.954;2022-08-04T06:19:51;100801.72;;;21.88;71.62
67931;BME280;54726;52.000;5.954;2022-08-04T06:20:53;100806.00;;;21.91;71.46
67931;BME280;54726;52.000;5.954;2022-08-04T06:21:57;100803.75;;;21.96;71.21
67931;BME280;54726;52.000;5.954;2022-08-04T06:23:05;100807.88;;;22.00;71.54
67931;BME280;54726;52.000;5.954;2022-08-04T06:24:09;100802.19;;;22.03;70.87
67931;BME280;54726;52.000;5.954;2022-08-04T06:25:14;100811.03;;;22.05;71.30